Doty, WA

7:56 AM PST on February 19, 2017 (GMT -0800)
curtis | | Change Station
Active Advisory: Gale Warning

Elev 312 ft 46.56 °N, 123.18 °W | Updated 20 seconds ago

Rain
Rain
40.5 °F
Feels Like 40 °F
N
2.0
Wind Variable Wind from ESE
Gusts 6.0 mph

Today
High -- | Low -- °F
--% Chance of Precip.
Yesterday
High -- | Low -- °F
Precip. -- in
Pressure 29.43 in
Visibility 6.0 miles
Clouds Scattered Clouds 1900 ft
Mostly Cloudy 2600 ft
Mostly Cloudy 3500 ft
Windchill 40 °F
Dew Point 39 °F
Humidity 95%
Rainfall 0.09 in
Snow Depth Not available.
7:09 AM 5:44 PM
Last Quarter, 42% visible
METAR KCLS 191555Z AUTO 18009G14KT 6SM -RA SCT019 BKN026 BKN035 06/05 A2943 RMK AO2 P0002
Pressure 29.43 in
Visibility 6.0 miles
Clouds Scattered Clouds 1900 ft
Mostly Cloudy 2600 ft
Mostly Cloudy 3500 ft
Windchill 40 °F
Dew Point 39 °F
Humidity 95%
Rainfall 0.09 in
Snow Depth Not available.
7:09 AM 5:44 PM
Last Quarter, 42% visible
METAR KCLS 191555Z AUTO 18009G14KT 6SM -RA SCT019 BKN026 BKN035 06/05 A2943 RMK AO2 P0002

Get Your Daily Forecast Email!

Thanks for signing up!

Be on the lookout for a verification email in your inbox.

You'll start receiving the daily forecast at 8 AM.

×

10-Day Weather Forecast

Almanac

Astronomy

Feb. 19, 2017 Rise Set
Actual Time
Civil Twilight
Nautical Twilight
Astronomical Twilight
Moon
Length of Visible Light
Length of Day
Tomorrow will be .
, % of the Moon is Illuminated

Today's Extremes

State Highs State Lows

Community

WunderPhotos

Upload Photos

1,962,540 photos uploaded!

WunderBlog® & News

Nearby

Air Quality

  Air Quality AQ Index Pollutant
Not available.

Snow Depth

Station Depth Elevation

Earthquake Activity

City Distance Mag. Time & Date
Minimum magnitude displayed is 2.5.

Coastal Water Temperatures

Place Temperature

Stations

Nearby Weather Stations

Station Location Temp. Windchill Dew Point Humidity Wind Precip. Elev Updated Type
                   

Watches & Warnings

Gale Warning
Issued: 6:06 AM PST Feb. 19, 2017 – National Weather Service

... Gale Warning remains in effect until noon PST today...

* winds... southerly wind 25 to 30 kt with gusts to 35 kt through
this morning. Wind becoming southwest 20 to 25 kt in the
afternoon.

* Seas... rising to 10 to 12 ft today then peaking around 12 to
14 ft tonight.

Precautionary/preparedness actions...

A Gale Warning means winds of 34 to 47 knots are imminent or
occurring. Operating a vessel in gale conditions requires
experience and properly equipped vessels. It is highly
recommended that mariners without the proper experience seek safe
Harbor prior to the onset of gale conditions.